createdAt,value
2022-11-20T00:00:18.493Z,3.40
2022-11-20T00:02:45.096Z,3.40
2022-11-20T00:05:11.702Z,3.40
2022-11-20T00:07:38.379Z,3.40
2022-11-20T00:10:05.644Z,3.30
2022-11-20T00:12:32.599Z,3.40
2022-11-20T00:14:59.291Z,3.30
2022-11-20T00:17:25.948Z,3.40
2022-11-20T00:19:52.576Z,3.30
2022-11-20T00:22:19.189Z,3.40
2022-11-20T00:24:45.780Z,3.40
2022-11-20T00:27:12.379Z,3.40
2022-11-20T00:29:39.005Z,3.40
2022-11-20T00:32:05.678Z,3.40
2022-11-20T00:34:32.277Z,3.50
2022-11-20T00:36:59.020Z,3.40
2022-11-20T00:39:25.631Z,3.50
2022-11-20T00:41:52.264Z,3.50
2022-11-20T00:44:18.858Z,3.50
2022-11-20T00:46:45.457Z,3.50
2022-11-20T00:49:12.059Z,3.40
2022-11-20T00:51:38.725Z,3.40
2022-11-20T00:54:05.707Z,3.40
2022-11-20T00:56:32.330Z,3.50
2022-11-20T00:59:01.724Z,3.60
2022-11-20T01:01:30.194Z,3.60
2022-11-20T01:03:59.975Z,3.60
2022-11-20T01:06:28.323Z,3.50
2022-11-20T01:08:57.791Z,3.60
2022-11-20T01:11:30.332Z,3.50
2022-11-20T01:13:59.177Z,3.60
2022-11-20T01:16:27.416Z,3.60
2022-11-20T01:18:56.749Z,3.70
2022-11-20T01:21:26.338Z,3.70
2022-11-20T01:23:53.500Z,3.60
2022-11-20T01:26:22.713Z,3.70
2022-11-20T01:28:50.213Z,3.60
2022-11-20T01:31:16.919Z,3.60
2022-11-20T01:33:45.251Z,3.60
2022-11-20T01:36:12.869Z,3.60
2022-11-20T01:38:39.728Z,3.60
2022-11-20T01:41:07.609Z,3.60
2022-11-20T01:43:34.284Z,3.60
2022-11-20T01:46:12.855Z,3.60
2022-11-20T01:48:53.484Z,3.60
2022-11-20T01:51:44.759Z,3.60
2022-11-20T01:54:17.468Z,3.50
2022-11-20T01:56:46.635Z,3.60
2022-11-20T01:59:16.613Z,3.60
2022-11-20T02:01:43.782Z,3.60
2022-11-20T02:04:11.708Z,3.60
2022-11-20T02:06:45.032Z,3.50
2022-11-20T02:09:12.635Z,3.50
2022-11-20T02:11:39.293Z,3.60
2022-11-20T02:14:06.200Z,3.60
2022-11-20T02:16:37.561Z,3.70
2022-11-20T02:19:10.655Z,3.70
2022-11-20T02:21:48.899Z,3.60
2022-11-20T02:24:18.122Z,3.50
2022-11-20T02:26:55.580Z,3.50
2022-11-20T02:29:28.787Z,3.60
2022-11-20T02:31:56.914Z,3.60
2022-11-20T02:34:23.511Z,3.50
2022-11-20T02:36:52.111Z,3.60
2022-11-20T02:39:22.011Z,3.60
2022-11-20T02:41:48.814Z,3.60
2022-11-20T02:44:15.638Z,3.50
2022-11-20T02:46:42.258Z,3.60
2022-11-20T02:49:08.881Z,3.60
2022-11-20T02:51:35.589Z,3.70
2022-11-20T02:54:02.298Z,3.60
2022-11-20T02:56:29.403Z,3.60
2022-11-20T02:58:56.587Z,3.70
2022-11-20T03:01:23.613Z,3.70
2022-11-20T03:03:50.575Z,3.60
2022-11-20T03:06:17.746Z,3.60
2022-11-20T03:08:44.461Z,3.50
2022-11-20T03:11:11.243Z,3.50
2022-11-20T03:13:37.901Z,3.60
2022-11-20T03:16:10.043Z,3.50
2022-11-20T03:18:36.744Z,3.50
2022-11-20T03:21:03.525Z,3.50
2022-11-20T03:23:32.607Z,3.60
2022-11-20T03:26:28.728Z,3.60
2022-11-20T03:29:00.688Z,3.60
2022-11-20T03:31:36.296Z,3.50
2022-11-20T03:34:04.123Z,3.40
2022-11-20T03:36:31.160Z,3.40
2022-11-20T03:38:58.598Z,3.40
2022-11-20T03:41:31.089Z,3.50
2022-11-20T03:44:03.582Z,3.50
2022-11-20T03:46:30.747Z,3.40
2022-11-20T03:48:57.472Z,3.40
2022-11-20T03:51:27.117Z,3.40
2022-11-20T03:53:56.398Z,3.50
2022-11-20T03:56:29.102Z,3.60
2022-11-20T03:58:55.854Z,3.50
2022-11-20T04:01:25.846Z,3.50
2022-11-20T04:03:54.112Z,3.50
2022-11-20T04:06:23.398Z,3.60
2022-11-20T04:08:53.774Z,3.50
2022-11-20T04:11:32.132Z,3.50
2022-11-20T04:14:04.739Z,3.40
2022-11-20T04:16:33.879Z,3.40
2022-11-20T04:19:02.469Z,3.40
2022-11-20T04:21:29.801Z,3.40
2022-11-20T04:23:56.818Z,3.50
2022-11-20T04:26:26.047Z,3.50
2022-11-20T04:28:53.043Z,3.50
2022-11-20T04:31:25.375Z,3.50
2022-11-20T04:33:52.758Z,3.50
2022-11-20T04:36:24.693Z,3.30
2022-11-20T04:38:57.258Z,3.40
2022-11-20T04:41:28.956Z,3.40
2022-11-20T04:44:00.603Z,3.40
2022-11-20T04:46:28.464Z,3.40
2022-11-20T04:48:55.225Z,3.40
2022-11-20T04:51:21.881Z,3.50
2022-11-20T04:53:48.601Z,3.50
2022-11-20T04:56:15.686Z,3.50
2022-11-20T04:58:42.615Z,3.50
2022-11-20T05:01:15.310Z,3.60
2022-11-20T05:03:43.642Z,3.60
2022-11-20T05:06:12.837Z,3.60
2022-11-20T05:08:40.101Z,3.60
2022-11-20T05:11:12.551Z,3.50
2022-11-20T05:13:39.526Z,3.60
2022-11-20T05:16:09.260Z,3.50
2022-11-20T05:18:36.933Z,3.50
2022-11-20T05:21:03.800Z,3.50
2022-11-20T05:23:31.598Z,3.50
2022-11-20T05:25:59.618Z,3.50
2022-11-20T05:28:27.675Z,3.40
2022-11-20T05:30:54.377Z,3.50
2022-11-20T05:33:21.643Z,3.50
2022-11-20T05:35:49.445Z,3.40
2022-11-20T05:38:16.567Z,3.40
2022-11-20T05:40:43.359Z,3.50
2022-11-20T05:43:09.989Z,3.50
2022-11-20T05:45:36.676Z,3.60
2022-11-20T05:48:03.603Z,3.50
2022-11-20T05:50:30.572Z,3.60
2022-11-20T05:53:00.452Z,3.70
2022-11-20T05:55:27.961Z,3.60
2022-11-20T05:57:55.730Z,3.60
2022-11-20T06:00:22.569Z,3.50
2022-11-20T06:02:49.262Z,3.50
2022-11-20T06:05:16.012Z,3.50
2022-11-20T06:07:42.814Z,3.40
2022-11-20T06:10:09.911Z,3.40
2022-11-20T06:12:36.530Z,3.50
2022-11-20T06:15:03.824Z,3.30
2022-11-20T06:17:30.444Z,3.30
2022-11-20T06:19:57.072Z,3.50
2022-11-20T06:22:23.705Z,3.50
2022-11-20T06:24:50.417Z,3.60
2022-11-20T06:27:17.735Z,3.60
2022-11-20T06:29:44.436Z,3.60
2022-11-20T06:32:11.094Z,3.60
2022-11-20T06:34:37.728Z,3.70
2022-11-20T06:37:04.351Z,3.70
2022-11-20T06:39:30.965Z,3.80
2022-11-20T06:41:59.209Z,3.80
2022-11-20T06:44:26.311Z,3.80
2022-11-20T06:46:52.992Z,3.80
2022-11-20T06:49:19.997Z,3.70
2022-11-20T06:51:46.916Z,3.60
2022-11-20T06:54:13.551Z,3.60
2022-11-20T06:56:40.186Z,3.60
2022-11-20T06:59:08.012Z,3.60
2022-11-20T07:01:34.746Z,3.50
2022-11-20T07:04:01.362Z,3.50
2022-11-20T07:06:28.149Z,3.60
2022-11-20T07:08:54.772Z,3.50
2022-11-20T07:11:21.407Z,3.40
2022-11-20T07:13:48.037Z,3.50
2022-11-20T07:16:14.850Z,3.40
2022-11-20T07:18:45.918Z,3.60
2022-11-20T07:21:15.849Z,3.60
2022-11-20T07:23:42.647Z,3.50
2022-11-20T07:26:10.825Z,3.50
2022-11-20T07:28:38.296Z,3.40
2022-11-20T07:31:05.900Z,3.40
2022-11-20T07:33:32.601Z,3.50
2022-11-20T07:36:00.987Z,3.50
2022-11-20T07:38:28.588Z,3.40
2022-11-20T07:40:56.824Z,3.40
2022-11-20T07:43:23.408Z,3.30
2022-11-20T07:45:50.086Z,3.30
2022-11-20T07:48:16.737Z,3.30
2022-11-20T07:50:43.380Z,3.20
2022-11-20T07:53:10.000Z,3.20
2022-11-20T07:55:36.987Z,3.30
2022-11-20T07:58:03.608Z,3.30
2022-11-20T08:00:30.275Z,3.20
2022-11-20T08:02:57.017Z,3.20
2022-11-20T08:05:24.165Z,3.20
2022-11-20T08:07:50.875Z,3.20
2022-11-20T08:10:17.831Z,3.00
2022-11-20T08:13:08.717Z,3.10
2022-11-20T08:15:35.917Z,3.10
2022-11-20T08:18:30.174Z,3.10
2022-11-20T08:20:54.873Z,3.20
2022-11-20T08:23:23.425Z,3.30
2022-11-20T08:25:51.909Z,3.30
2022-11-20T08:28:21.656Z,3.50
2022-11-20T08:30:49.387Z,3.50
2022-11-20T08:33:16.012Z,3.50
2022-11-20T08:35:43.785Z,3.50
2022-11-20T08:38:10.581Z,3.60
2022-11-20T08:40:37.204Z,3.40
2022-11-20T08:43:03.791Z,3.40
2022-11-20T08:45:34.086Z,3.30
2022-11-20T08:48:05.139Z,3.30
2022-11-20T08:50:33.173Z,3.40
2022-11-20T08:53:06.267Z,3.60
2022-11-20T08:55:33.036Z,3.60
2022-11-20T08:58:03.705Z,3.70
2022-11-20T09:00:30.299Z,3.80
2022-11-20T09:02:56.936Z,3.70
2022-11-20T09:05:23.543Z,3.60
2022-11-20T09:07:50.152Z,3.70
2022-11-20T09:10:24.056Z,3.70
2022-11-20T09:12:52.539Z,3.70
2022-11-20T09:15:19.541Z,3.70
2022-11-20T09:17:56.921Z,3.80
2022-11-20T09:20:23.735Z,3.90
2022-11-20T09:22:50.573Z,3.90
2022-11-20T09:25:18.205Z,3.90
2022-11-20T09:27:46.778Z,4.00
2022-11-20T09:30:17.267Z,3.80
2022-11-20T09:32:44.124Z,3.80
2022-11-20T09:35:11.423Z,3.90
2022-11-20T09:37:38.410Z,3.90
2022-11-20T09:40:05.555Z,3.90
2022-11-20T09:42:37.715Z,4.00
2022-11-20T09:45:23.079Z,4.00
2022-11-20T09:48:14.275Z,4.10
2022-11-20T09:50:48.800Z,4.20
2022-11-20T09:53:36.089Z,4.30
2022-11-20T09:56:05.611Z,4.20
2022-11-20T09:58:42.684Z,4.30
2022-11-20T10:01:17.179Z,4.30
2022-11-20T10:04:14.545Z,4.40
2022-11-20T10:06:59.481Z,4.50
2022-11-20T10:09:44.133Z,4.60
2022-11-20T10:12:27.922Z,4.60
2022-11-20T10:15:07.212Z,4.60
2022-11-20T10:18:06.993Z,4.70
2022-11-20T10:21:11.505Z,4.70
2022-11-20T10:23:57.676Z,4.70
2022-11-20T10:26:48.171Z,4.80
2022-11-20T10:29:17.879Z,4.70
2022-11-20T10:31:46.210Z,4.80
2022-11-20T10:34:47.811Z,4.90
2022-11-20T10:37:19.400Z,5.10
2022-11-20T10:40:01.336Z,5.00
2022-11-20T10:42:35.463Z,5.10
2022-11-20T10:45:27.821Z,5.10
2022-11-20T10:48:05.861Z,5.10
2022-11-20T10:50:33.615Z,5.10
2022-11-20T10:53:19.085Z,5.10
2022-11-20T10:55:58.769Z,5.10
2022-11-20T10:58:44.927Z,5.10
2022-11-20T11:01:27.424Z,5.20
2022-11-20T11:03:56.263Z,5.20
2022-11-20T11:06:40.396Z,5.10
2022-11-20T11:09:18.044Z,5.10
2022-11-20T11:11:45.130Z,5.00
2022-11-20T11:14:14.166Z,5.00
2022-11-20T11:16:55.636Z,4.90
2022-11-20T11:19:23.361Z,5.00
2022-11-20T11:21:55.607Z,5.10
2022-11-20T11:24:42.703Z,4.90
2022-11-20T11:27:18.690Z,5.10
2022-11-20T11:29:46.628Z,5.10
2022-11-20T11:32:15.636Z,5.20
2022-11-20T11:34:42.596Z,5.20
2022-11-20T11:37:22.385Z,5.30
2022-11-20T11:40:03.932Z,5.30
2022-11-20T11:42:42.356Z,5.30
2022-11-20T11:45:15.247Z,5.10
2022-11-20T11:47:44.891Z,5.20
2022-11-20T11:50:21.188Z,5.20
2022-11-20T11:53:11.093Z,5.30
2022-11-20T11:55:46.537Z,5.30
2022-11-20T11:58:20.588Z,5.40
2022-11-20T12:01:11.109Z,5.40
2022-11-20T12:03:40.055Z,5.50
2022-11-20T12:06:17.758Z,5.40
2022-11-20T12:08:56.760Z,5.30
2022-11-20T12:11:35.709Z,5.20
2022-11-20T12:14:27.788Z,5.40
2022-11-20T12:16:56.586Z,5.40
2022-11-20T12:19:23.452Z,5.40
2022-11-20T12:22:09.121Z,5.40
2022-11-20T12:24:55.953Z,5.40
2022-11-20T12:27:43.163Z,5.50
2022-11-20T12:30:20.179Z,5.50
2022-11-20T12:33:11.222Z,5.60
2022-11-20T12:36:07.385Z,5.70
2022-11-20T12:39:01.532Z,5.60
2022-11-20T12:42:11.123Z,5.60
2022-11-20T12:45:10.122Z,5.60
2022-11-20T12:47:58.292Z,5.60
2022-11-20T12:50:53.383Z,5.60
2022-11-20T12:53:44.974Z,5.60
2022-11-20T12:56:32.933Z,5.70
2022-11-20T12:59:02.388Z,5.70
2022-11-20T13:01:45.642Z,5.70
2022-11-20T13:04:39.970Z,5.70
2022-11-20T13:07:14.355Z,5.70
2022-11-20T13:09:49.362Z,5.60
2022-11-20T13:12:26.236Z,5.60
2022-11-20T13:15:01.472Z,5.60
2022-11-20T13:17:52.757Z,5.60
2022-11-20T13:20:20.275Z,5.70
2022-11-20T13:22:55.644Z,5.70
2022-11-20T13:25:38.447Z,5.70
2022-11-20T13:28:09.644Z,5.70
2022-11-20T13:30:38.006Z,5.70
2022-11-20T13:33:34.993Z,5.70
2022-11-20T13:36:07.518Z,5.60
2022-11-20T13:38:51.377Z,5.70
2022-11-20T13:41:38.557Z,5.60
2022-11-20T13:44:11.594Z,5.60
2022-11-20T13:46:44.820Z,5.60
2022-11-20T13:49:17.745Z,5.70
2022-11-20T13:51:55.162Z,5.70
2022-11-20T13:54:44.693Z,5.60
2022-11-20T13:57:14.306Z,5.70
2022-11-20T13:59:54.807Z,5.70
2022-11-20T14:02:24.183Z,5.80
2022-11-20T14:04:53.979Z,5.80
2022-11-20T14:07:24.596Z,5.80
2022-11-20T14:09:54.186Z,5.90
2022-11-20T14:12:34.220Z,5.90
2022-11-20T14:15:01.340Z,5.90
2022-11-20T14:17:36.232Z,5.90
2022-11-20T14:20:12.921Z,5.90
2022-11-20T14:22:39.525Z,5.80
2022-11-20T14:25:15.163Z,5.80
2022-11-20T14:27:44.213Z,5.80
2022-11-20T14:30:19.209Z,5.80
2022-11-20T14:32:48.442Z,5.90
2022-11-20T14:35:36.473Z,5.90
2022-11-20T14:38:04.203Z,5.80
2022-11-20T14:40:36.704Z,5.80
2022-11-20T14:43:19.102Z,5.80
2022-11-20T14:46:03.134Z,5.80
2022-11-20T14:48:47.210Z,5.80
2022-11-20T14:51:35.787Z,5.80
2022-11-20T14:54:20.311Z,5.90
2022-11-20T14:56:58.014Z,5.90
2022-11-20T14:59:26.576Z,5.90
2022-11-20T15:02:12.940Z,5.90
2022-11-20T15:04:58.109Z,5.90
2022-11-20T15:07:30.937Z,5.90
2022-11-20T15:10:02.044Z,6.00
2022-11-20T15:12:29.841Z,5.90
2022-11-20T15:14:56.490Z,5.80
2022-11-20T15:17:23.391Z,5.90
2022-11-20T15:19:50.173Z,5.90
2022-11-20T15:22:19.893Z,6.00
2022-11-20T15:24:47.298Z,6.00
2022-11-20T15:27:14.014Z,6.00
2022-11-20T15:29:41.185Z,6.00
2022-11-20T15:32:13.373Z,5.90
2022-11-20T15:34:40.584Z,5.90
2022-11-20T15:37:07.189Z,5.80
2022-11-20T15:39:34.183Z,5.90
2022-11-20T15:42:00.816Z,6.00
2022-11-20T15:44:27.571Z,6.00
2022-11-20T15:46:54.229Z,6.10
2022-11-20T15:49:22.629Z,6.10
2022-11-20T15:51:50.823Z,6.20
2022-11-20T15:54:23.964Z,5.90
2022-11-20T15:56:54.495Z,6.00
2022-11-20T15:59:21.628Z,6.40
2022-11-20T16:01:48.293Z,6.30
2022-11-20T16:04:17.451Z,6.20
2022-11-20T16:06:44.059Z,6.10
2022-11-20T16:09:10.700Z,6.20
2022-11-20T16:11:38.269Z,6.20
2022-11-20T16:14:24.466Z,6.10
2022-11-20T16:16:52.174Z,6.00
2022-11-20T16:19:19.020Z,6.00
2022-11-20T16:21:45.637Z,6.00
2022-11-20T16:24:14.883Z,6.00
2022-11-20T16:26:42.276Z,6.10
2022-11-20T16:29:09.255Z,6.10
2022-11-20T16:31:36.041Z,6.10
2022-11-20T16:34:11.158Z,6.20
2022-11-20T16:36:42.157Z,6.20
2022-11-20T16:39:08.801Z,6.20
2022-11-20T16:41:36.303Z,6.30
2022-11-20T16:44:08.478Z,6.30
2022-11-20T16:46:35.752Z,6.30
2022-11-20T16:49:05.933Z,6.30
2022-11-20T16:51:35.785Z,6.30
2022-11-20T16:54:04.161Z,6.30
2022-11-20T16:56:30.841Z,6.30
2022-11-20T16:58:59.427Z,6.30
2022-11-20T17:01:28.559Z,6.30
2022-11-20T17:04:00.970Z,6.30
2022-11-20T17:06:30.112Z,6.20
2022-11-20T17:08:57.528Z,6.20
2022-11-20T17:11:25.297Z,6.20
2022-11-20T17:13:52.365Z,6.30
2022-11-20T17:16:21.414Z,6.30
2022-11-20T17:18:50.054Z,6.30
2022-11-20T17:21:18.331Z,6.30
2022-11-20T17:23:45.960Z,6.20
2022-11-20T17:26:18.033Z,6.30
2022-11-20T17:29:10.054Z,6.30
2022-11-20T17:31:38.546Z,6.40
2022-11-20T17:34:06.689Z,6.30
2022-11-20T17:36:33.606Z,6.30
2022-11-20T17:39:00.577Z,6.30
2022-11-20T17:41:29.037Z,6.30
2022-11-20T17:44:00.943Z,6.20
2022-11-20T17:46:30.443Z,6.30
2022-11-20T17:48:57.125Z,6.20
2022-11-20T17:51:26.771Z,6.20
2022-11-20T17:53:56.481Z,6.20
2022-11-20T17:56:41.854Z,6.30
2022-11-20T17:59:11.370Z,6.20
2022-11-20T18:01:39.281Z,6.20
2022-11-20T18:04:06.202Z,6.20
2022-11-20T18:06:33.375Z,6.20
2022-11-20T18:09:01.204Z,6.20
2022-11-20T18:11:29.935Z,6.20
2022-11-20T18:14:17.217Z,6.20
2022-11-20T18:16:50.494Z,6.30
2022-11-20T18:19:20.309Z,6.40
2022-11-20T18:21:47.336Z,6.30
2022-11-20T18:24:14.336Z,6.30
2022-11-20T18:26:44.316Z,6.20
2022-11-20T18:29:13.125Z,6.30
2022-11-20T18:31:40.780Z,6.30
2022-11-20T18:34:11.539Z,6.40
2022-11-20T18:36:38.896Z,6.50
2022-11-20T18:39:05.935Z,6.50
2022-11-20T18:41:51.242Z,6.40
2022-11-20T18:44:41.823Z,6.40
2022-11-20T18:47:14.464Z,6.30
2022-11-20T18:49:50.641Z,6.20
2022-11-20T18:52:22.629Z,6.30
2022-11-20T18:54:50.367Z,6.30
2022-11-20T18:57:23.585Z,6.40
2022-11-20T18:59:51.329Z,6.40
2022-11-20T19:02:20.098Z,6.40
2022-11-20T19:04:47.081Z,6.50
2022-11-20T19:07:14.602Z,6.60
2022-11-20T19:09:44.142Z,6.70
2022-11-20T19:12:12.528Z,6.80
2022-11-20T19:14:39.625Z,6.70
2022-11-20T19:17:07.094Z,6.80
2022-11-20T19:19:34.795Z,6.90
2022-11-20T19:22:01.471Z,6.90
2022-11-20T19:24:28.351Z,7.00
2022-11-20T19:26:56.044Z,7.00
2022-11-20T19:29:24.535Z,7.00
2022-11-20T19:31:51.625Z,7.10
2022-11-20T19:34:18.208Z,7.10
2022-11-20T19:36:45.223Z,7.10
2022-11-20T19:39:12.636Z,7.10
2022-11-20T19:41:41.157Z,7.10
2022-11-20T19:44:13.803Z,7.20
2022-11-20T19:46:41.589Z,7.20
2022-11-20T19:49:10.544Z,7.10
2022-11-20T19:51:39.297Z,7.20
2022-11-20T19:54:06.739Z,7.30
2022-11-20T19:56:34.163Z,7.20
2022-11-20T19:59:00.924Z,7.20
2022-11-20T20:01:29.870Z,7.20
2022-11-20T20:04:01.247Z,7.30
2022-11-20T20:06:28.425Z,7.30
2022-11-20T20:09:04.467Z,7.30
2022-11-20T20:11:32.984Z,7.30
2022-11-20T20:14:13.461Z,7.50
2022-11-20T20:16:40.486Z,7.50
2022-11-20T20:19:07.142Z,7.50
2022-11-20T20:21:35.197Z,7.60
2022-11-20T20:24:02.664Z,7.60
2022-11-20T20:26:31.482Z,7.60
2022-11-20T20:28:58.801Z,7.60
2022-11-20T20:31:27.544Z,7.60
2022-11-20T20:33:55.165Z,7.70
2022-11-20T20:36:23.485Z,7.70
2022-11-20T20:38:54.936Z,7.70
2022-11-20T20:41:23.637Z,7.70
2022-11-20T20:44:09.093Z,7.60
2022-11-20T20:46:35.765Z,7.70
2022-11-20T20:49:02.436Z,7.60
2022-11-20T20:51:29.317Z,7.60
2022-11-20T20:53:55.982Z,7.70
2022-11-20T20:56:22.788Z,7.70
2022-11-20T20:58:49.380Z,7.80
2022-11-20T21:01:17.815Z,7.70
2022-11-20T21:03:44.680Z,7.70
2022-11-20T21:06:12.012Z,7.60
2022-11-20T21:08:41.180Z,7.70
2022-11-20T21:11:14.083Z,7.70
2022-11-20T21:13:42.946Z,7.70
2022-11-20T21:16:10.767Z,7.70
2022-11-20T21:18:37.704Z,7.70
2022-11-20T21:21:25.228Z,7.70
2022-11-20T21:23:53.308Z,7.70
2022-11-20T21:26:20.718Z,7.70
2022-11-20T21:28:48.004Z,7.70
2022-11-20T21:31:18.252Z,7.80
2022-11-20T21:33:46.710Z,7.70
2022-11-20T21:36:15.469Z,7.80
2022-11-20T21:38:42.459Z,7.70
2022-11-20T21:41:10.477Z,7.80
2022-11-20T21:43:37.413Z,7.70
2022-11-20T21:46:06.929Z,7.80
2022-11-20T21:48:35.165Z,7.60
2022-11-20T21:51:07.225Z,7.70
2022-11-20T21:53:34.229Z,7.70
2022-11-20T21:56:01.821Z,7.70
2022-11-20T21:58:28.562Z,7.70
2022-11-20T22:00:55.268Z,7.60
2022-11-20T22:03:22.735Z,7.60
2022-11-20T22:05:59.296Z,7.60
2022-11-20T22:08:26.631Z,7.60
2022-11-20T22:10:58.694Z,7.60
2022-11-20T22:13:44.781Z,7.60
2022-11-20T22:16:12.223Z,7.60
2022-11-20T22:18:43.632Z,7.50
2022-11-20T22:21:10.768Z,7.50
2022-11-20T22:23:37.986Z,7.50
2022-11-20T22:26:06.824Z,7.50
2022-11-20T22:28:34.355Z,7.50
2022-11-20T22:31:02.404Z,7.40
2022-11-20T22:33:31.017Z,7.50
2022-11-20T22:36:06.301Z,7.40
2022-11-20T22:38:38.865Z,7.40
2022-11-20T22:41:08.160Z,7.50
2022-11-20T22:43:35.598Z,7.40
2022-11-20T22:46:17.646Z,7.40
2022-11-20T22:48:58.972Z,7.30
2022-11-20T22:51:31.581Z,7.30
2022-11-20T22:53:58.523Z,7.30
2022-11-20T22:56:25.453Z,7.30
2022-11-20T22:58:53.217Z,7.30
2022-11-20T23:01:25.139Z,7.30
2022-11-20T23:03:55.132Z,7.30
2022-11-20T23:06:22.509Z,7.30
2022-11-20T23:08:50.161Z,7.20
2022-11-20T23:11:19.481Z,7.20
2022-11-20T23:13:46.963Z,7.20
2022-11-20T23:16:15.992Z,7.20
2022-11-20T23:18:43.699Z,7.20
2022-11-20T23:21:13.201Z,7.20
2022-11-20T23:23:40.582Z,7.20
2022-11-20T23:26:12.123Z,7.30
2022-11-20T23:28:40.000Z,7.20
2022-11-20T23:31:07.540Z,7.20
2022-11-20T23:33:38.970Z,7.20
2022-11-20T23:36:06.779Z,7.20
2022-11-20T23:38:34.094Z,7.20
2022-11-20T23:41:01.154Z,7.20
2022-11-20T23:43:28.582Z,7.20
2022-11-20T23:45:57.856Z,7.20
2022-11-20T23:48:26.496Z,7.20
2022-11-20T23:50:53.288Z,7.20
2022-11-20T23:53:21.890Z,7.20
2022-11-20T23:55:51.009Z,7.10
2022-11-20T23:58:18.412Z,7.20
